Archival Weather

Chicago O'Hare International

Chicago, Illinois (KORD)

Report from: Wednesday, August 23, 2023 11:51 PM CDT
Current time: Thursday, July 18, 2024 9:00 PM CDT

Current weather – Weather history – Daily summaries
Weather forecast

Temperature31.1°C (88.0°F)
Heat index39.4°C (103.0°F)
Dew point26.1°C (79.0°F)
Winds 14 kts (7.2 m/s, 16.1 mph) West-Southwest (250°)
Wind gusts 22 kts (11.3 m/s, 25.3 mph)
Visibility10 mi. (16.1 km)
Clouds Sky clear
Altimeter29.84 in.Hg (1010 mB)
Relative humidity75 %
Density altitude2,407 ft. (734 m)
Sea-level pressure101.0 kPa (1010 mB, 29.82 in.Hg)
Remarks Automated weather observing station with precipitation discriminator
Flight conditions Visual Meteorological Conditions
Raw dataKORD 240451Z 25014G22KT 10SM CLR 31/26 A2984 RMK AO2 SLP098 T03110261
An error has occurred. This application may no longer respond until reloaded. Reload 🗙